sensor_id;sensor_type;location;lat;lon;timestamp;pressure;altitude;pressure_sealevel;temperature;humidity
75418;BME280;63997;52.112;5.420;2022-12-05T00:01:28;102011.19;;;2.77;89.00
75418;BME280;63997;52.112;5.420;2022-12-05T00:04:05;102018.03;;;2.78;89.17
75418;BME280;63997;52.112;5.420;2022-12-05T00:06:33;102014.97;;;2.81;89.04
75418;BME280;63997;52.112;5.420;2022-12-05T00:09:01;102015.97;;;2.80;88.84
75418;BME280;63997;52.112;5.420;2022-12-05T00:11:30;102015.75;;;2.81;88.95
75418;BME280;63997;52.112;5.420;2022-12-05T00:13:59;102016.31;;;2.83;88.78
75418;BME280;63997;52.112;5.420;2022-12-05T00:16:32;102017.88;;;2.84;88.85
75418;BME280;63997;52.112;5.420;2022-12-05T00:19:05;102008.97;;;2.85;88.91
75418;BME280;63997;52.112;5.420;2022-12-05T00:21:36;102012.16;;;2.87;88.79
75418;BME280;63997;52.112;5.420;2022-12-05T00:24:06;102015.84;;;2.86;88.90
75418;BME280;63997;52.112;5.420;2022-12-05T00:26:34;102018.22;;;2.88;88.77
75418;BME280;63997;52.112;5.420;2022-12-05T00:29:04;102010.09;;;2.89;88.91
75418;BME280;63997;52.112;5.420;2022-12-05T00:31:32;102014.31;;;2.90;88.76
75418;BME280;63997;52.112;5.420;2022-12-05T00:34:00;102015.09;;;2.91;88.73
75418;BME280;63997;52.112;5.420;2022-12-05T00:36:29;102015.69;;;2.93;88.69
75418;BME280;63997;52.112;5.420;2022-12-05T00:38:59;102009.63;;;2.92;88.72
75418;BME280;63997;52.112;5.420;2022-12-05T00:41:27;102016.72;;;2.92;88.75
75418;BME280;63997;52.112;5.420;2022-12-05T00:43:54;102014.38;;;2.96;89.12
75418;BME280;63997;52.112;5.420;2022-12-05T00:46:23;102010.72;;;2.97;89.03
75418;BME280;63997;52.112;5.420;2022-12-05T00:48:55;102017.59;;;2.98;89.13
75418;BME280;63997;52.112;5.420;2022-12-05T00:51:26;102014.47;;;3.01;89.10
75418;BME280;63997;52.112;5.420;2022-12-05T00:53:56;102014.22;;;3.02;88.98
75418;BME280;63997;52.112;5.420;2022-12-05T00:56:26;102021.31;;;3.02;89.01
75418;BME280;63997;52.112;5.420;2022-12-05T00:58:54;102014.00;;;3.04;89.16
75418;BME280;63997;52.112;5.420;2022-12-05T01:01:23;102010.59;;;3.03;89.26
75418;BME280;63997;52.112;5.420;2022-12-05T01:03:53;102011.38;;;3.04;89.32
75418;BME280;63997;52.112;5.420;2022-12-05T01:06:21;102012.19;;;3.04;89.45
75418;BME280;63997;52.112;5.420;2022-12-05T01:08:48;102012.97;;;3.05;89.37
75418;BME280;63997;52.112;5.420;2022-12-05T01:11:17;102012.47;;;3.08;89.40
75418;BME280;63997;52.112;5.420;2022-12-05T01:13:44;102014.31;;;3.07;89.54
75418;BME280;63997;52.112;5.420;2022-12-05T01:16:20;102006.66;;;3.06;89.46
75418;BME280;63997;52.112;5.420;2022-12-05T01:18:50;102017.72;;;3.08;89.73
75418;BME280;63997;52.112;5.420;2022-12-05T01:21:20;102014.56;;;3.06;89.62
75418;BME280;63997;52.112;5.420;2022-12-05T01:23:47;102016.16;;;3.07;89.80
75418;BME280;63997;52.112;5.420;2022-12-05T01:26:14;102016.94;;;3.07;89.87
75418;BME280;63997;52.112;5.420;2022-12-05T01:28:42;102016.72;;;3.09;89.87
75418;BME280;63997;52.112;5.420;2022-12-05T01:31:25;102016.72;;;3.09;90.07
75418;BME280;63997;52.112;5.420;2022-12-05T01:33:55;102019.81;;;3.06;90.20
75418;BME280;63997;52.112;5.420;2022-12-05T01:36:23;102022.97;;;3.08;90.75
75418;BME280;63997;52.112;5.420;2022-12-05T01:38:51;102018.53;;;3.08;90.48
75418;BME280;63997;52.112;5.420;2022-12-05T01:41:21;102021.41;;;3.07;90.55
75418;BME280;63997;52.112;5.420;2022-12-05T01:44:56;102020.34;;;3.08;90.81
75418;BME280;63997;52.112;5.420;2022-12-05T01:46:54;102020.34;;;3.08;90.71
75418;BME280;63997;52.112;5.420;2022-12-05T01:49:25;102022.19;;;3.07;90.95
75418;BME280;63997;52.112;5.420;2022-12-05T01:51:58;102026.19;;;3.10;91.14
75418;BME280;63997;52.112;5.420;2022-12-05T01:54:25;102027.78;;;3.11;91.00
75418;BME280;63997;52.112;5.420;2022-12-05T01:56:56;102032.00;;;3.12;91.15
75418;BME280;63997;52.112;5.420;2022-12-05T01:59:28;102023.56;;;3.10;90.98
75418;BME280;63997;52.112;5.420;2022-12-05T02:01:58;102027.22;;;3.09;91.12
75418;BME280;63997;52.112;5.420;2022-12-05T02:04:25;102021.72;;;3.10;91.24
75418;BME280;63997;52.112;5.420;2022-12-05T02:07:06;102026.75;;;3.12;91.34
75418;BME280;63997;52.112;5.420;2022-12-05T02:09:33;102026.19;;;3.10;91.31
75418;BME280;63997;52.112;5.420;2022-12-05T02:12:01;102026.41;;;3.08;91.46
75418;BME280;63997;52.112;5.420;2022-12-05T02:14:45;102025.94;;;3.11;91.41
75418;BME280;63997;52.112;5.420;2022-12-05T02:17:31;102021.22;;;3.13;91.82
75418;BME280;63997;52.112;5.420;2022-12-05T02:20:32;102019.19;;;3.15;91.74
75418;BME280;63997;52.112;5.420;2022-12-05T02:31:17;102015.25;;;3.18;91.94
75418;BME280;63997;52.112;5.420;2022-12-05T02:33:52;102016.84;;;3.19;91.90
75418;BME280;63997;52.112;5.420;2022-12-05T02:36:56;102016.06;;;3.18;91.96
75418;BME280;63997;52.112;5.420;2022-12-05T02:39:50;102016.31;;;3.17;91.99
75418;BME280;63997;52.112;5.420;2022-12-05T02:42:40;102021.31;;;3.18;92.01
75418;BME280;63997;52.112;5.420;2022-12-05T02:45:12;102012.97;;;3.22;92.14
75418;BME280;63997;52.112;5.420;2022-12-05T02:47:47;102013.75;;;3.22;92.20
75418;BME280;63997;52.112;5.420;2022-12-05T02:50:24;102016.94;;;3.24;92.24
75418;BME280;63997;52.112;5.420;2022-12-05T02:52:56;102021.38;;;3.24;92.18
75418;BME280;63997;52.112;5.420;2022-12-05T02:55:27;102015.34;;;3.23;92.17
75418;BME280;63997;52.112;5.420;2022-12-05T02:57:59;102021.13;;;3.25;92.24
75418;BME280;63997;52.112;5.420;2022-12-05T03:00:28;102014.31;;;3.24;92.16
75418;BME280;63997;52.112;5.420;2022-12-05T03:02:56;102011.13;;;3.22;92.25
75418;BME280;63997;52.112;5.420;2022-12-05T03:08:05;102022.75;;;3.26;92.16
75418;BME280;63997;52.112;5.420;2022-12-05T03:10:34;102016.47;;;3.27;92.17
75418;BME280;63997;52.112;5.420;2022-12-05T03:13:08;102011.75;;;3.29;92.11
75418;BME280;63997;52.112;5.420;2022-12-05T03:15:41;102022.00;;;3.31;92.23
75418;BME280;63997;52.112;5.420;2022-12-05T03:18:19;102026.00;;;3.33;92.09
75418;BME280;63997;52.112;5.420;2022-12-05T03:23:26;102018.66;;;3.35;92.13
75418;BME280;63997;52.112;5.420;2022-12-05T03:26:09;102022.66;;;3.38;91.92
75418;BME280;63997;52.112;5.420;2022-12-05T03:28:53;102019.00;;;3.39;91.94
75418;BME280;63997;52.112;5.420;2022-12-05T03:31:56;102026.63;;;3.40;92.23
75418;BME280;63997;52.112;5.420;2022-12-05T03:34:50;102025.38;;;3.43;91.95
75418;BME280;63997;52.112;5.420;2022-12-05T03:37:46;102028.00;;;3.43;91.62
75418;BME280;63997;52.112;5.420;2022-12-05T03:40:31;102033.00;;;3.44;91.93
75418;BME280;63997;52.112;5.420;2022-12-05T03:43:12;102033.81;;;3.45;91.96
75418;BME280;63997;52.112;5.420;2022-12-05T03:46:08;102032.50;;;3.48;91.98
75418;BME280;63997;52.112;5.420;2022-12-05T03:49:03;102037.56;;;3.49;91.80
75418;BME280;63997;52.112;5.420;2022-12-05T03:51:40;102042.00;;;3.49;91.97
75418;BME280;63997;52.112;5.420;2022-12-05T03:54:25;102040.97;;;3.50;91.82
75418;BME280;63997;52.112;5.420;2022-12-05T03:57:04;102047.03;;;3.50;91.97
75418;BME280;63997;52.112;5.420;2022-12-05T03:59:48;102045.72;;;3.53;92.04
75418;BME280;63997;52.112;5.420;2022-12-05T04:02:30;102044.16;;;3.52;91.77
75418;BME280;63997;52.112;5.420;2022-12-05T04:05:26;102049.41;;;3.52;91.85
75418;BME280;63997;52.112;5.420;2022-12-05T04:08:02;102051.78;;;3.53;92.11
75418;BME280;63997;52.112;5.420;2022-12-05T04:10:32;102049.97;;;3.54;91.96
75418;BME280;63997;52.112;5.420;2022-12-05T04:13:29;102046.31;;;3.55;92.10
75418;BME280;63997;52.112;5.420;2022-12-05T04:16:09;102041.59;;;3.57;91.95
75418;BME280;63997;52.112;5.420;2022-12-05T04:19:00;102050.28;;;3.57;92.01
75418;BME280;63997;52.112;5.420;2022-12-05T04:21:37;102040.56;;;3.58;92.07
75418;BME280;63997;52.112;5.420;2022-12-05T04:24:13;102050.28;;;3.57;92.07
75418;BME280;63997;52.112;5.420;2022-12-05T04:27:22;102045.81;;;3.58;91.92
75418;BME280;63997;52.112;5.420;2022-12-05T04:32:34;102040.56;;;3.58;92.05
75418;BME280;63997;52.112;5.420;2022-12-05T04:35:12;102033.69;;;3.57;92.14
75418;BME280;63997;52.112;5.420;2022-12-05T04:37:44;102038.72;;;3.58;92.21
75418;BME280;63997;52.112;5.420;2022-12-05T04:40:25;102041.13;;;3.60;92.25
75418;BME280;63997;52.112;5.420;2022-12-05T04:42:55;102037.69;;;3.59;92.26
75418;BME280;63997;52.112;5.420;2022-12-05T04:45:25;102028.19;;;3.58;92.19
75418;BME280;63997;52.112;5.420;2022-12-05T04:47:57;102036.09;;;3.58;92.44
75418;BME280;63997;52.112;5.420;2022-12-05T04:50:31;102032.97;;;3.61;92.58
75418;BME280;63997;52.112;5.420;2022-12-05T04:53:00;102034.25;;;3.59;92.53
75418;BME280;63997;52.112;5.420;2022-12-05T04:55:30;102035.84;;;3.60;92.61
75418;BME280;63997;52.112;5.420;2022-12-05T04:58:04;102033.22;;;3.60;92.73
75418;BME280;63997;52.112;5.420;2022-12-05T05:00:42;102049.81;;;3.60;92.76
75418;BME280;63997;52.112;5.420;2022-12-05T05:03:18;102049.56;;;3.62;92.79
75418;BME280;63997;52.112;5.420;2022-12-05T05:05:47;102039.28;;;3.60;92.57
75418;BME280;63997;52.112;5.420;2022-12-05T05:08:19;102032.19;;;3.61;92.60
75418;BME280;63997;52.112;5.420;2022-12-05T05:11:21;102036.94;;;3.64;92.99
75418;BME280;63997;52.112;5.420;2022-12-05T05:13:50;102038.56;;;3.65;92.89
75418;BME280;63997;52.112;5.420;2022-12-05T05:16:23;102035.94;;;3.65;92.79
75418;BME280;63997;52.112;5.420;2022-12-05T05:18:55;102035.09;;;3.64;92.86
75418;BME280;63997;52.112;5.420;2022-12-05T05:21:29;102040.69;;;3.68;93.02
75418;BME280;63997;52.112;5.420;2022-12-05T05:24:08;102044.91;;;3.69;93.16
75418;BME280;63997;52.112;5.420;2022-12-05T05:26:39;102043.31;;;3.68;93.17
75418;BME280;63997;52.112;5.420;2022-12-05T05:29:11;102043.31;;;3.68;93.03
75418;BME280;63997;52.112;5.420;2022-12-05T05:31:41;102050.16;;;3.69;93.24
75418;BME280;63997;52.112;5.420;2022-12-05T05:34:09;102052.59;;;3.70;93.24
75418;BME280;63997;52.112;5.420;2022-12-05T05:36:37;102041.00;;;3.71;93.24
75418;BME280;63997;52.112;5.420;2022-12-05T05:39:05;102039.19;;;3.72;93.13
75418;BME280;63997;52.112;5.420;2022-12-05T05:41:34;102049.69;;;3.72;93.22
75418;BME280;63997;52.112;5.420;2022-12-05T05:44:02;102045.78;;;3.75;93.27
75418;BME280;63997;52.112;5.420;2022-12-05T05:46:33;102042.94;;;3.76;93.36
75418;BME280;63997;52.112;5.420;2022-12-05T05:49:01;102052.41;;;3.77;93.37
75418;BME280;63997;52.112;5.420;2022-12-05T05:51:28;102043.47;;;3.78;93.42
75418;BME280;63997;52.112;5.420;2022-12-05T05:53:57;102035.31;;;3.80;93.46
75418;BME280;63997;52.112;5.420;2022-12-05T05:56:28;102037.69;;;3.81;93.40
75418;BME280;63997;52.112;5.420;2022-12-05T05:59:00;102035.91;;;3.82;93.39
75418;BME280;63997;52.112;5.420;2022-12-05T06:01:27;102037.47;;;3.83;93.27
75418;BME280;63997;52.112;5.420;2022-12-05T06:03:53;102035.63;;;3.83;93.43
75418;BME280;63997;52.112;5.420;2022-12-05T06:06:22;102044.06;;;3.85;93.46
75418;BME280;63997;52.112;5.420;2022-12-05T06:08:51;102041.19;;;3.87;93.44
75418;BME280;63997;52.112;5.420;2022-12-05T06:11:21;102046.47;;;3.87;93.37
75418;BME280;63997;52.112;5.420;2022-12-05T06:13:56;102042.81;;;3.88;93.45
75418;BME280;63997;52.112;5.420;2022-12-05T06:16:24;102043.59;;;3.88;93.34
75418;BME280;63997;52.112;5.420;2022-12-05T06:18:53;102043.88;;;3.92;93.48
75418;BME280;63997;52.112;5.420;2022-12-05T06:21:25;102040.47;;;3.91;93.48
75418;BME280;63997;52.112;5.420;2022-12-05T06:23:54;102036.00;;;3.92;93.39
75418;BME280;63997;52.112;5.420;2022-12-05T06:26:24;102041.03;;;3.93;93.54
75418;BME280;63997;52.112;5.420;2022-12-05T06:28:54;102048.44;;;3.96;93.50
75418;BME280;63997;52.112;5.420;2022-12-05T06:31:25;102046.59;;;3.97;93.53
75418;BME280;63997;52.112;5.420;2022-12-05T06:34:00;102047.38;;;3.97;93.65
75418;BME280;63997;52.112;5.420;2022-12-05T06:36:28;102049.00;;;3.98;93.44
75418;BME280;63997;52.112;5.420;2022-12-05T06:38:56;102046.91;;;4.01;93.53
75418;BME280;63997;52.112;5.420;2022-12-05T06:41:24;102047.69;;;4.01;93.41
75418;BME280;63997;52.112;5.420;2022-12-05T06:43:54;102048.25;;;4.03;93.63
75418;BME280;63997;52.112;5.420;2022-12-05T06:46:27;102049.84;;;4.04;93.46
75418;BME280;63997;52.112;5.420;2022-12-05T06:48:58;102051.19;;;4.07;93.56
75418;BME280;63997;52.112;5.420;2022-12-05T06:51:26;102053.81;;;4.07;93.69
75418;BME280;63997;52.112;5.420;2022-12-05T06:53:54;102057.25;;;4.07;93.57
75418;BME280;63997;52.112;5.420;2022-12-05T06:56:21;102064.88;;;4.09;93.53
75418;BME280;63997;52.112;5.420;2022-12-05T06:58:48;102065.69;;;4.09;93.57
75418;BME280;63997;52.112;5.420;2022-12-05T07:01:18;102067.28;;;4.10;93.56
75418;BME280;63997;52.112;5.420;2022-12-05T07:04:16;102065.47;;;4.11;93.53
75418;BME280;63997;52.112;5.420;2022-12-05T07:06:46;102062.56;;;4.12;93.54
75418;BME280;63997;52.112;5.420;2022-12-05T07:09:18;102069.44;;;4.13;93.61
75418;BME280;63997;52.112;5.420;2022-12-05T07:11:47;102066.31;;;4.16;93.52
75418;BME280;63997;52.112;5.420;2022-12-05T07:14:13;102068.16;;;4.16;93.52
75418;BME280;63997;52.112;5.420;2022-12-05T07:17:00;102059.75;;;4.19;93.71
75418;BME280;63997;52.112;5.420;2022-12-05T07:19:27;102068.44;;;4.19;93.56
75418;BME280;63997;52.112;5.420;2022-12-05T07:21:54;102069.25;;;4.20;93.52
75418;BME280;63997;52.112;5.420;2022-12-05T07:24:21;102070.59;;;4.22;93.65
75418;BME280;63997;52.112;5.420;2022-12-05T07:26:49;102072.97;;;4.24;93.47
75418;BME280;63997;52.112;5.420;2022-12-05T07:29:18;102080.88;;;4.24;93.56
75418;BME280;63997;52.112;5.420;2022-12-05T07:31:45;102076.16;;;4.26;93.57
75418;BME280;63997;52.112;5.420;2022-12-05T07:34:11;102083.03;;;4.27;93.76
75418;BME280;63997;52.112;5.420;2022-12-05T07:36:38;102086.47;;;4.28;93.71
75418;BME280;63997;52.112;5.420;2022-12-05T07:39:05;102087.00;;;4.30;93.52
75418;BME280;63997;52.112;5.420;2022-12-05T07:41:32;102095.69;;;4.30;93.61
75418;BME280;63997;52.112;5.420;2022-12-05T07:44:00;102092.00;;;4.31;93.66
75418;BME280;63997;52.112;5.420;2022-12-05T07:46:27;102094.66;;;4.31;93.52
75418;BME280;63997;52.112;5.420;2022-12-05T07:48:55;102092.59;;;4.33;93.59
75418;BME280;63997;52.112;5.420;2022-12-05T07:53:58;102096.53;;;4.36;93.67
75418;BME280;63997;52.112;5.420;2022-12-05T07:56:25;102097.91;;;4.38;93.68
75418;BME280;63997;52.112;5.420;2022-12-05T07:58:51;102102.38;;;4.38;93.64
75418;BME280;63997;52.112;5.420;2022-12-05T08:01:21;102110.03;;;4.39;93.66
75418;BME280;63997;52.112;5.420;2022-12-05T08:03:48;102109.25;;;4.39;93.63
75418;BME280;63997;52.112;5.420;2022-12-05T08:06:17;102110.03;;;4.39;93.45
75418;BME280;63997;52.112;5.420;2022-12-05T08:08:44;102114.25;;;4.40;93.68
75418;BME280;63997;52.112;5.420;2022-12-05T08:11:15;102114.00;;;4.42;93.66
75418;BME280;63997;52.112;5.420;2022-12-05T08:13:43;102112.16;;;4.42;93.16
75418;BME280;63997;52.112;5.420;2022-12-05T08:16:12;102110.31;;;4.43;93.57
75418;BME280;63997;52.112;5.420;2022-12-05T08:18:40;102104.81;;;4.44;93.54
75418;BME280;63997;52.112;5.420;2022-12-05T08:21:13;102113.81;;;4.48;93.36
75418;BME280;63997;52.112;5.420;2022-12-05T08:23:40;102118.06;;;4.49;93.34
75418;BME280;63997;52.112;5.420;2022-12-05T08:26:09;102118.84;;;4.50;93.34
75418;BME280;63997;52.112;5.420;2022-12-05T08:28:36;102118.34;;;4.53;93.26
75418;BME280;63997;52.112;5.420;2022-12-05T08:31:16;102116.50;;;4.54;93.28
75418;BME280;63997;52.112;5.420;2022-12-05T08:33:43;102124.41;;;4.54;93.38
75418;BME280;63997;52.112;5.420;2022-12-05T08:36:12;102126.03;;;4.55;93.21
75418;BME280;63997;52.112;5.420;2022-12-05T08:38:41;102123.94;;;4.57;93.34
75418;BME280;63997;52.112;5.420;2022-12-05T08:41:10;102125.25;;;4.59;93.21
75418;BME280;63997;52.112;5.420;2022-12-05T08:43:37;102126.63;;;4.62;93.06
75418;BME280;63997;52.112;5.420;2022-12-05T08:46:04;102134.53;;;4.62;93.13
75418;BME280;63997;52.112;5.420;2022-12-05T08:48:31;102131.88;;;4.62;93.14
75418;BME280;63997;52.112;5.420;2022-12-05T08:50:58;102141.38;;;4.63;93.21
75418;BME280;63997;52.112;5.420;2022-12-05T08:53:25;102135.84;;;4.64;93.02
75418;BME280;63997;52.112;5.420;2022-12-05T08:55:51;102133.00;;;4.66;92.94
75418;BME280;63997;52.112;5.420;2022-12-05T08:58:18;102136.16;;;4.68;92.99
75418;BME280;63997;52.112;5.420;2022-12-05T09:00:44;102144.59;;;4.70;92.95
75418;BME280;63997;52.112;5.420;2022-12-05T09:03:11;102145.41;;;4.70;92.85
75418;BME280;63997;52.112;5.420;2022-12-05T09:05:38;102152.28;;;4.71;93.06
75418;BME280;63997;52.112;5.420;2022-12-05T09:08:05;102153.09;;;4.72;92.99
75418;BME280;63997;52.112;5.420;2022-12-05T09:10:31;102139.34;;;4.70;92.98
75418;BME280;63997;52.112;5.420;2022-12-05T09:12:58;102146.75;;;4.73;93.14
75418;BME280;63997;52.112;5.420;2022-12-05T09:15:24;102149.69;;;4.76;93.06
75418;BME280;63997;52.112;5.420;2022-12-05T09:17:50;102149.94;;;4.75;92.95
75418;BME280;63997;52.112;5.420;2022-12-05T09:20:17;102147.31;;;4.75;93.05
75418;BME280;63997;52.112;5.420;2022-12-05T09:22:44;102154.16;;;4.76;93.04
75418;BME280;63997;52.112;5.420;2022-12-05T09:25:10;102148.09;;;4.75;92.97
75418;BME280;63997;52.112;5.420;2022-12-05T09:27:36;102148.88;;;4.76;93.00
75418;BME280;63997;52.112;5.420;2022-12-05T09:30:04;102155.78;;;4.77;93.00
75418;BME280;63997;52.112;5.420;2022-12-05T09:32:31;102148.66;;;4.77;92.99
75418;BME280;63997;52.112;5.420;2022-12-05T09:34:57;102155.25;;;4.80;93.04
75418;BME280;63997;52.112;5.420;2022-12-05T09:37:24;102154.22;;;4.81;92.91
75418;BME280;63997;52.112;5.420;2022-12-05T09:40:09;102153.75;;;4.84;92.81
75418;BME280;63997;52.112;5.420;2022-12-05T09:43:15;102158.75;;;4.86;92.73
75418;BME280;63997;52.112;5.420;2022-12-05T09:45:39;102170.09;;;4.86;92.74
75418;BME280;63997;52.112;5.420;2022-12-05T09:48:19;102173.28;;;4.88;92.59
75418;BME280;63997;52.112;5.420;2022-12-05T09:50:52;102169.59;;;4.89;92.67
75418;BME280;63997;52.112;5.420;2022-12-05T09:53:48;102163.53;;;4.89;92.46
75418;BME280;63997;52.112;5.420;2022-12-05T09:58:52;102166.97;;;4.89;92.60
75418;BME280;63997;52.112;5.420;2022-12-05T10:01:39;102164.09;;;4.91;92.41
75418;BME280;63997;52.112;5.420;2022-12-05T10:09:56;102171.50;;;4.94;92.58
75418;BME280;63997;52.112;5.420;2022-12-05T10:15:22;102170.50;;;5.00;92.37
75418;BME280;63997;52.112;5.420;2022-12-05T10:17:57;102172.34;;;4.99;92.36
75418;BME280;63997;52.112;5.420;2022-12-05T10:20:28;102167.09;;;4.99;92.42
75418;BME280;63997;52.112;5.420;2022-12-05T10:23:45;102167.88;;;5.00;92.35
75418;BME280;63997;52.112;5.420;2022-12-05T10:26:11;102167.63;;;5.01;92.47
75418;BME280;63997;52.112;5.420;2022-12-05T10:31:30;102160.81;;;5.06;92.30
75418;BME280;63997;52.112;5.420;2022-12-05T10:34:07;102166.31;;;5.04;92.29
75418;BME280;63997;52.112;5.420;2022-12-05T10:36:37;102163.44;;;5.06;92.48
75418;BME280;63997;52.112;5.420;2022-12-05T10:39:03;102168.47;;;5.07;92.44
75418;BME280;63997;52.112;5.420;2022-12-05T10:41:36;102166.63;;;5.08;92.45
75418;BME280;63997;52.112;5.420;2022-12-05T10:44:03;102162.94;;;5.09;92.46
75418;BME280;63997;52.112;5.420;2022-12-05T10:46:30;102155.59;;;5.11;92.46
75418;BME280;63997;52.112;5.420;2022-12-05T10:48:58;102160.59;;;5.12;92.44
75418;BME280;63997;52.112;5.420;2022-12-05T10:51:27;102153.50;;;5.13;92.42
75418;BME280;63997;52.112;5.420;2022-12-05T10:54:01;102152.19;;;5.15;92.51
75418;BME280;63997;52.112;5.420;2022-12-05T10:56:42;102145.06;;;5.16;92.49
75418;BME280;63997;52.112;5.420;2022-12-05T10:59:15;102154.59;;;5.17;92.64
75418;BME280;63997;52.112;5.420;2022-12-05T11:01:47;102149.31;;;5.17;92.57
75418;BME280;63997;52.112;5.420;2022-12-05T11:04:27;102145.63;;;5.18;92.74
75418;BME280;63997;52.112;5.420;2022-12-05T11:07:01;102142.72;;;5.19;92.69
75418;BME280;63997;52.112;5.420;2022-12-05T11:09:37;102144.31;;;5.20;92.91
75418;BME280;63997;52.112;5.420;2022-12-05T11:12:16;102152.78;;;5.22;92.98
75418;BME280;63997;52.112;5.420;2022-12-05T11:14:55;102145.91;;;5.21;93.01
75418;BME280;63997;52.112;5.420;2022-12-05T11:17:36;102140.41;;;5.23;93.08
75418;BME280;63997;52.112;5.420;2022-12-05T11:22:54;102140.94;;;5.25;93.15
75418;BME280;63997;52.112;5.420;2022-12-05T11:27:54;102139.34;;;5.24;93.18
75418;BME280;63997;52.112;5.420;2022-12-05T11:30:28;102143.31;;;5.26;93.13
75418;BME280;63997;52.112;5.420;2022-12-05T11:33:19;102137.56;;;5.29;93.27
75418;BME280;63997;52.112;5.420;2022-12-05T11:35:49;102141.53;;;5.32;93.22
75418;BME280;63997;52.112;5.420;2022-12-05T11:38:18;102144.72;;;5.34;93.41
75418;BME280;63997;52.112;5.420;2022-12-05T11:41:10;102139.19;;;5.36;93.25
75418;BME280;63997;52.112;5.420;2022-12-05T11:44:17;102143.16;;;5.38;93.43
75418;BME280;63997;52.112;5.420;2022-12-05T11:52:00;102134.44;;;5.38;93.22
75418;BME280;63997;52.112;5.420;2022-12-05T11:58:21;102138.44;;;5.40;93.22
75418;BME280;63997;52.112;5.420;2022-12-05T12:00:42;102137.38;;;5.41;93.23
75418;BME280;63997;52.112;5.420;2022-12-05T12:12:25;102142.69;;;5.46;93.01
75418;BME280;63997;52.112;5.420;2022-12-05T12:15:36;102139.00;;;5.47;93.13
75418;BME280;63997;52.112;5.420;2022-12-05T12:18:33;102146.94;;;5.47;92.97
75418;BME280;63997;52.112;5.420;2022-12-05T12:21:15;102145.09;;;5.48;93.03
75418;BME280;63997;52.112;5.420;2022-12-05T12:26:15;102136.91;;;5.49;93.06
75418;BME280;63997;52.112;5.420;2022-12-05T12:34:53;102124.50;;;5.50;92.99
75418;BME280;63997;52.112;5.420;2022-12-05T12:37:51;102126.66;;;5.53;92.97
75418;BME280;63997;52.112;5.420;2022-12-05T12:40:32;102122.69;;;5.50;92.79
75418;BME280;63997;52.112;5.420;2022-12-05T12:46:37;102122.91;;;5.49;92.84
75418;BME280;63997;52.112;5.420;2022-12-05T12:49:27;102117.91;;;5.47;92.81
75418;BME280;63997;52.112;5.420;2022-12-05T12:52:21;102125.28;;;5.45;92.64
75418;BME280;63997;52.112;5.420;2022-12-05T12:55:07;102122.38;;;5.47;92.85
75418;BME280;63997;52.112;5.420;2022-12-05T12:57:58;102114.47;;;5.47;92.79
75418;BME280;63997;52.112;5.420;2022-12-05T13:03:15;102113.69;;;5.46;92.29
75418;BME280;63997;52.112;5.420;2022-12-05T13:05:46;102109.47;;;5.45;92.43
75418;BME280;63997;52.112;5.420;2022-12-05T13:08:28;102113.41;;;5.48;92.27
75418;BME280;63997;52.112;5.420;2022-12-05T13:10:57;102108.94;;;5.48;92.37
75418;BME280;63997;52.112;5.420;2022-12-05T13:13:30;102112.63;;;5.47;92.27
75418;BME280;63997;52.112;5.420;2022-12-05T13:16:00;102111.03;;;5.46;92.27
75418;BME280;63997;52.112;5.420;2022-12-05T13:18:27;102106.03;;;5.45;92.29
75418;BME280;63997;52.112;5.420;2022-12-05T13:20:56;102114.47;;;5.47;92.30
75418;BME280;63997;52.112;5.420;2022-12-05T13:23:26;102115.25;;;5.47;92.28
75418;BME280;63997;52.112;5.420;2022-12-05T13:25:56;102117.91;;;5.47;92.43
75418;BME280;63997;52.112;5.420;2022-12-05T13:28:29;102115.25;;;5.47;92.06
75418;BME280;63997;52.112;5.420;2022-12-05T13:30:58;102105.75;;;5.46;92.15
75418;BME280;63997;52.112;5.420;2022-12-05T13:33:35;102112.88;;;5.46;92.23
75418;BME280;63997;52.112;5.420;2022-12-05T13:36:11;102111.03;;;5.46;92.41
75418;BME280;63997;52.112;5.420;2022-12-05T13:39:03;102113.69;;;5.46;92.33
75418;BME280;63997;52.112;5.420;2022-12-05T13:41:54;102118.41;;;5.44;92.48
75418;BME280;63997;52.112;5.420;2022-12-05T13:44:43;102115.22;;;5.42;92.27
75418;BME280;63997;52.112;5.420;2022-12-05T13:50:22;102118.13;;;5.41;92.53
75418;BME280;63997;52.112;5.420;2022-12-05T13:52:55;102118.38;;;5.39;92.39
75418;BME280;63997;52.112;5.420;2022-12-05T13:55:36;102126.53;;;5.38;92.43
75418;BME280;63997;52.112;5.420;2022-12-05T14:00:41;102129.16;;;5.38;92.53
75418;BME280;63997;52.112;5.420;2022-12-05T14:03:16;102123.88;;;5.38;92.49
75418;BME280;63997;52.112;5.420;2022-12-05T14:05:48;102124.41;;;5.35;92.53
75418;BME280;63997;52.112;5.420;2022-12-05T14:15:49;102120.16;;;5.28;92.42
75418;BME280;63997;52.112;5.420;2022-12-05T14:18:40;102121.72;;;5.29;92.33
75418;BME280;63997;52.112;5.420;2022-12-05T14:24:12;102120.94;;;5.29;92.40
75418;BME280;63997;52.112;5.420;2022-12-05T14:32:27;102126.44;;;5.27;92.56
75418;BME280;63997;52.112;5.420;2022-12-05T14:35:11;102125.41;;;5.28;92.60
75418;BME280;63997;52.112;5.420;2022-12-05T14:37:50;102125.41;;;5.28;92.58
75418;BME280;63997;52.112;5.420;2022-12-05T14:40:31;102131.50;;;5.29;92.59
75418;BME280;63997;52.112;5.420;2022-12-05T14:43:17;102131.72;;;5.27;92.67
75418;BME280;63997;52.112;5.420;2022-12-05T14:48:37;102137.81;;;5.28;92.93
75418;BME280;63997;52.112;5.420;2022-12-05T14:54:07;102133.06;;;5.30;92.90
75418;BME280;63997;52.112;5.420;2022-12-05T14:57:02;102137.81;;;5.28;92.87
75418;BME280;63997;52.112;5.420;2022-12-05T14:59:55;102135.19;;;5.28;93.04
75418;BME280;63997;52.112;5.420;2022-12-05T15:02:45;102141.25;;;5.28;92.93
75418;BME280;63997;52.112;5.420;2022-12-05T15:05:22;102148.91;;;5.30;92.99
75418;BME280;63997;52.112;5.420;2022-12-05T15:07:51;102143.09;;;5.28;92.89
75418;BME280;63997;52.112;5.420;2022-12-05T15:10:22;102152.59;;;5.29;92.99
75418;BME280;63997;52.112;5.420;2022-12-05T15:13:02;102145.72;;;5.28;93.00
75418;BME280;63997;52.112;5.420;2022-12-05T15:18:22;102160.72;;;5.27;93.23